createdAt,value
2018-12-27T00:00:15.702Z,0.50
2018-12-27T00:02:43.857Z,0.40
2018-12-27T00:05:11.963Z,0.50
2018-12-27T00:07:42.547Z,0.60
2018-12-27T00:10:10.740Z,0.50
2018-12-27T00:12:38.809Z,0.50
2018-12-27T00:15:06.900Z,0.50
2018-12-27T00:17:35.953Z,0.60
2018-12-27T00:20:03.886Z,0.70
2018-12-27T00:22:32.320Z,0.80
2018-12-27T00:25:00.548Z,0.80
2018-12-27T00:27:47.762Z,0.70
2018-12-27T00:30:15.822Z,0.70
2018-12-27T00:32:44.694Z,0.70
2018-12-27T00:35:12.775Z,0.60
2018-12-27T00:37:41.337Z,0.50
2018-12-27T00:40:09.857Z,0.50
2018-12-27T00:42:38.015Z,0.60
2018-12-27T00:45:05.851Z,0.60
2018-12-27T00:47:33.996Z,0.60
2018-12-27T00:50:02.479Z,0.60
2018-12-27T00:52:30.794Z,0.50
2018-12-27T00:54:58.916Z,0.50
2018-12-27T00:57:27.363Z,0.50
2018-12-27T00:59:55.778Z,0.60
2018-12-27T01:02:24.894Z,0.60
2018-12-27T01:04:53.458Z,0.60
2018-12-27T01:07:21.648Z,0.60
2018-12-27T01:09:50.405Z,0.60
2018-12-27T01:12:18.843Z,0.70
2018-12-27T01:14:46.594Z,0.70
2018-12-27T01:17:14.756Z,0.70
2018-12-27T01:19:42.978Z,0.70
2018-12-27T01:22:10.639Z,0.70
2018-12-27T01:24:38.894Z,0.70
2018-12-27T01:27:06.928Z,0.80
2018-12-27T01:29:35.393Z,0.80
2018-12-27T01:32:04.298Z,0.80
2018-12-27T01:34:32.986Z,0.80
2018-12-27T01:37:01.310Z,0.90
2018-12-27T01:39:29.723Z,0.90
2018-12-27T01:41:57.518Z,0.90
2018-12-27T01:44:26.435Z,0.90
2018-12-27T01:46:54.361Z,0.90
2018-12-27T01:49:22.710Z,1.00
2018-12-27T01:51:51.026Z,0.80
2018-12-27T01:54:18.720Z,0.80
2018-12-27T01:56:52.252Z,0.80
2018-12-27T01:59:20.363Z,0.90
2018-12-27T02:01:48.366Z,0.90
2018-12-27T02:04:16.881Z,0.90
2018-12-27T02:06:45.043Z,0.90
2018-12-27T02:09:13.071Z,0.90
2018-12-27T02:11:41.542Z,0.90
2018-12-27T02:14:09.507Z,0.80
2018-12-27T02:16:38.012Z,0.80
2018-12-27T02:19:06.334Z,0.70
2018-12-27T02:21:34.758Z,0.70
2018-12-27T02:24:02.521Z,0.70
2018-12-27T02:26:31.065Z,0.70
2018-12-27T02:28:58.367Z,0.70
2018-12-27T02:31:26.443Z,0.80
2018-12-27T02:33:54.784Z,0.70
2018-12-27T02:36:22.434Z,0.80
2018-12-27T02:38:50.945Z,0.80
2018-12-27T02:41:19.116Z,0.70
2018-12-27T02:43:47.150Z,0.70
2018-12-27T02:46:15.207Z,0.70
2018-12-27T02:48:43.196Z,0.70
2018-12-27T02:51:11.947Z,0.70
2018-12-27T02:53:40.489Z,0.70
2018-12-27T02:56:08.588Z,0.70
2018-12-27T02:58:36.915Z,0.80
2018-12-27T03:01:04.938Z,0.70
2018-12-27T03:03:33.065Z,0.70
2018-12-27T03:06:01.815Z,0.70
2018-12-27T03:08:29.853Z,0.70
2018-12-27T03:10:57.888Z,0.70
2018-12-27T03:13:26.731Z,0.70
2018-12-27T03:15:54.669Z,0.80
2018-12-27T03:18:22.728Z,0.80
2018-12-27T03:20:51.007Z,0.80
2018-12-27T03:23:19.388Z,0.80
2018-12-27T03:25:47.907Z,0.90
2018-12-27T03:28:16.363Z,1.00
2018-12-27T03:30:45.344Z,1.00
2018-12-27T03:33:13.217Z,0.90
2018-12-27T03:35:41.319Z,0.90
2018-12-27T03:38:08.976Z,0.90
2018-12-27T03:40:37.834Z,0.80
2018-12-27T03:43:05.430Z,0.80
2018-12-27T03:45:34.182Z,0.80
2018-12-27T03:48:02.868Z,0.80
2018-12-27T03:50:31.176Z,0.70
2018-12-27T03:52:59.259Z,0.70
2018-12-27T03:55:27.612Z,0.70
2018-12-27T03:57:56.275Z,0.70
2018-12-27T04:00:24.278Z,0.70
2018-12-27T04:02:52.346Z,0.70
2018-12-27T04:07:48.275Z,0.70
2018-12-27T04:10:16.415Z,0.70
2018-12-27T04:12:45.028Z,0.70
2018-12-27T04:15:13.721Z,0.60
2018-12-27T04:17:42.123Z,0.60
2018-12-27T04:20:09.657Z,0.70
2018-12-27T04:22:38.102Z,0.80
2018-12-27T04:25:05.851Z,0.80
2018-12-27T04:27:34.041Z,0.80
2018-12-27T04:30:02.252Z,0.90
2018-12-27T04:32:31.040Z,0.80
2018-12-27T04:34:59.746Z,1.00
2018-12-27T04:37:27.746Z,0.90
2018-12-27T04:39:56.106Z,0.90
2018-12-27T04:42:24.964Z,0.90
2018-12-27T04:44:53.361Z,1.00
2018-12-27T04:47:21.459Z,0.90
2018-12-27T04:49:49.767Z,0.90
2018-12-27T04:52:18.618Z,0.90
2018-12-27T04:54:46.250Z,0.90
2018-12-27T04:57:14.405Z,0.80
2018-12-27T04:59:41.749Z,0.80
2018-12-27T05:02:10.494Z,0.70
2018-12-27T05:04:38.756Z,0.70
2018-12-27T05:07:06.411Z,0.80
2018-12-27T05:09:34.528Z,0.80
2018-12-27T05:12:02.995Z,0.70
2018-12-27T05:14:30.376Z,0.70
2018-12-27T05:16:58.824Z,0.70
2018-12-27T05:19:27.094Z,0.80
2018-12-27T05:21:54.747Z,0.70
2018-12-27T05:24:22.057Z,0.60
2018-12-27T05:26:49.651Z,0.60
2018-12-27T05:29:18.348Z,0.70
2018-12-27T05:31:47.107Z,0.70
2018-12-27T05:34:14.828Z,0.70
2018-12-27T05:36:42.886Z,0.70
2018-12-27T05:39:10.536Z,0.70
2018-12-27T05:41:38.916Z,0.80
2018-12-27T05:44:07.263Z,0.70
2018-12-27T05:46:35.644Z,0.70
2018-12-27T05:49:03.350Z,0.70
2018-12-27T05:51:31.725Z,0.80
2018-12-27T05:54:00.010Z,0.70
2018-12-27T05:56:27.315Z,0.90
2018-12-27T05:58:55.945Z,0.80
2018-12-27T06:01:24.030Z,0.80
2018-12-27T06:03:51.968Z,0.70
2018-12-27T06:06:20.041Z,0.80
2018-12-27T06:08:48.119Z,0.80
2018-12-27T06:11:16.672Z,0.80
2018-12-27T06:13:45.092Z,0.70
2018-12-27T06:16:12.806Z,0.70
2018-12-27T06:21:08.842Z,0.80
2018-12-27T06:23:36.421Z,0.80
2018-12-27T06:26:04.541Z,0.80
2018-12-27T06:28:33.295Z,0.80
2018-12-27T06:31:00.826Z,0.70
2018-12-27T06:33:28.525Z,0.70
2018-12-27T06:35:56.594Z,0.70
2018-12-27T06:38:24.667Z,0.70
2018-12-27T06:40:52.358Z,0.70
2018-12-27T06:43:20.083Z,0.70
2018-12-27T06:45:48.891Z,0.70
2018-12-27T06:48:16.867Z,0.80
2018-12-27T06:50:44.138Z,0.80
2018-12-27T06:53:12.211Z,0.80
2018-12-27T06:55:41.036Z,0.80
2018-12-27T06:58:09.046Z,0.80
2018-12-27T07:00:37.488Z,0.80
2018-12-27T07:03:05.936Z,0.70
2018-12-27T07:05:34.675Z,0.70
2018-12-27T07:08:02.725Z,0.70
2018-12-27T07:10:31.156Z,0.70
2018-12-27T07:15:27.622Z,0.70
2018-12-27T07:17:55.926Z,0.70
2018-12-27T07:20:24.054Z,0.70
2018-12-27T07:22:52.705Z,0.60
2018-12-27T07:25:20.836Z,0.70
2018-12-27T07:27:49.618Z,0.80
2018-12-27T07:30:18.105Z,0.80
2018-12-27T07:32:46.172Z,0.80
2018-12-27T07:35:14.025Z,0.70
2018-12-27T07:37:42.909Z,0.70
2018-12-27T07:40:12.109Z,0.80
2018-12-27T07:42:40.094Z,0.70
2018-12-27T07:45:08.895Z,0.70
2018-12-27T07:47:37.296Z,0.80
2018-12-27T07:50:06.049Z,0.70
2018-12-27T07:52:34.120Z,0.70
2018-12-27T07:55:02.226Z,0.70
2018-12-27T07:57:30.265Z,0.70
2018-12-27T07:59:58.946Z,0.70
2018-12-27T08:02:27.134Z,0.70
2018-12-27T08:04:54.891Z,0.80
2018-12-27T08:07:23.297Z,0.70
2018-12-27T08:09:54.807Z,0.80
2018-12-27T08:12:22.644Z,0.70
2018-12-27T08:14:50.792Z,0.70
2018-12-27T08:17:19.187Z,0.70
2018-12-27T08:19:47.528Z,0.70
2018-12-27T08:22:15.235Z,0.70
2018-12-27T08:24:43.259Z,0.80
2018-12-27T08:27:11.232Z,0.70
2018-12-27T08:29:39.286Z,0.70
2018-12-27T08:32:07.683Z,0.80
2018-12-27T08:34:37.224Z,0.90
2018-12-27T08:37:05.778Z,0.90
2018-12-27T08:39:34.382Z,1.00
2018-12-27T08:42:02.749Z,0.90
2018-12-27T08:44:30.279Z,1.00
2018-12-27T08:46:58.382Z,1.00
2018-12-27T08:49:27.251Z,1.00
2018-12-27T08:51:55.020Z,1.00
2018-12-27T08:54:23.075Z,1.00
2018-12-27T08:56:51.445Z,1.00
2018-12-27T08:59:19.590Z,1.00
2018-12-27T09:01:47.720Z,1.00
2018-12-27T09:04:15.736Z,1.10
2018-12-27T09:06:44.151Z,1.10
2018-12-27T09:09:12.982Z,1.10
2018-12-27T09:14:08.998Z,1.20
2018-12-27T09:16:37.810Z,1.20
2018-12-27T09:19:05.883Z,1.20
2018-12-27T09:21:34.253Z,1.20
2018-12-27T09:24:01.920Z,1.20
2018-12-27T09:26:29.566Z,1.40
2018-12-27T09:28:58.046Z,1.30
2018-12-27T09:31:26.452Z,1.20
2018-12-27T09:36:23.105Z,1.30
2018-12-27T09:38:54.547Z,1.30
2018-12-27T09:41:22.920Z,1.30
2018-12-27T09:43:51.519Z,1.30
2018-12-27T09:46:19.994Z,1.30
2018-12-27T09:48:47.663Z,1.30
2018-12-27T09:51:17.868Z,1.30
2018-12-27T09:53:46.789Z,1.30
2018-12-27T09:56:15.862Z,1.20
2018-12-27T09:58:46.382Z,1.20
2018-12-27T10:01:15.169Z,1.10
2018-12-27T10:03:42.854Z,1.30
2018-12-27T10:06:13.684Z,1.40
2018-12-27T10:08:41.451Z,1.40
2018-12-27T10:11:09.951Z,1.30
2018-12-27T10:13:42.243Z,1.40
2018-12-27T10:16:10.717Z,1.40
2018-12-27T10:18:38.926Z,1.50
2018-12-27T10:21:06.765Z,1.50
2018-12-27T10:23:35.204Z,1.50
2018-12-27T10:26:04.088Z,1.50
2018-12-27T10:28:31.429Z,1.60
2018-12-27T10:33:29.071Z,1.50
2018-12-27T10:35:58.162Z,1.60
2018-12-27T10:38:26.604Z,1.60
2018-12-27T10:40:54.668Z,1.60
2018-12-27T10:43:22.775Z,1.60
2018-12-27T10:45:51.072Z,1.70
2018-12-27T10:48:19.199Z,1.80
2018-12-27T10:50:47.910Z,1.80
2018-12-27T10:53:16.188Z,1.80
2018-12-27T10:55:45.105Z,1.70
2018-12-27T10:58:13.657Z,1.70
2018-12-27T11:00:41.830Z,1.70
2018-12-27T11:03:10.051Z,1.70
2018-12-27T11:05:38.819Z,1.70
2018-12-27T11:08:06.859Z,1.60
2018-12-27T11:10:34.655Z,1.70
2018-12-27T11:15:30.559Z,1.70
2018-12-27T11:17:59.053Z,1.70
2018-12-27T11:20:26.935Z,1.60
2018-12-27T11:22:56.194Z,1.60
2018-12-27T11:25:24.446Z,1.70
2018-12-27T11:27:54.140Z,1.70
2018-12-27T11:30:22.284Z,1.60
2018-12-27T11:32:53.947Z,1.50
2018-12-27T11:35:24.593Z,1.40
2018-12-27T11:37:59.563Z,1.50
2018-12-27T11:42:56.168Z,1.60
2018-12-27T11:45:24.548Z,1.80
2018-12-27T11:47:52.627Z,1.70
2018-12-27T11:50:21.220Z,1.80
2018-12-27T11:52:49.958Z,1.90
2018-12-27T11:55:17.952Z,1.90
2018-12-27T11:57:46.103Z,1.90
2018-12-27T12:00:14.696Z,1.70
2018-12-27T12:02:44.021Z,1.70
2018-12-27T12:05:12.194Z,1.70
2018-12-27T12:07:41.065Z,1.60
2018-12-27T12:10:09.775Z,1.50
2018-12-27T12:12:38.657Z,1.70
2018-12-27T12:15:07.423Z,1.70
2018-12-27T12:17:35.988Z,1.70
2018-12-27T12:20:04.399Z,1.70
2018-12-27T12:22:32.890Z,1.80
2018-12-27T12:25:01.071Z,1.90
2018-12-27T12:27:28.839Z,1.80
2018-12-27T12:29:56.944Z,1.60
2018-12-27T12:32:25.489Z,1.60
2018-12-27T12:34:54.255Z,1.70
2018-12-27T12:37:23.073Z,1.70
2018-12-27T12:39:50.435Z,1.60
2018-12-27T12:44:48.975Z,1.60
2018-12-27T12:47:17.446Z,1.70
2018-12-27T12:49:48.977Z,1.70
2018-12-27T12:52:17.207Z,1.90
2018-12-27T12:54:44.927Z,1.90
2018-12-27T12:57:12.843Z,2.00
2018-12-27T13:02:09.159Z,2.10
2018-12-27T13:04:37.219Z,2.00
2018-12-27T13:07:05.084Z,2.00
2018-12-27T13:09:33.529Z,2.00
2018-12-27T13:12:02.668Z,2.00
2018-12-27T13:14:31.256Z,2.10
2018-12-27T13:17:00.040Z,2.20
2018-12-27T13:19:28.476Z,2.20
2018-12-27T13:21:56.445Z,2.10
2018-12-27T13:24:24.606Z,2.00
2018-12-27T13:26:52.275Z,2.00
2018-12-27T13:29:20.070Z,2.00
2018-12-27T13:31:48.456Z,2.10
2018-12-27T13:34:16.188Z,2.20
2018-12-27T13:36:44.595Z,2.20
2018-12-27T13:39:12.676Z,2.00
2018-12-27T13:41:40.842Z,2.00
2018-12-27T13:44:09.301Z,2.00
2018-12-27T13:46:37.998Z,2.00
2018-12-27T13:49:06.888Z,1.90
2018-12-27T13:51:34.267Z,1.90
2018-12-27T13:54:02.397Z,1.80
2018-12-27T13:56:30.585Z,1.80
2018-12-27T14:01:27.295Z,1.90
2018-12-27T14:03:55.404Z,1.90
2018-12-27T14:06:23.533Z,2.00
2018-12-27T14:08:55.349Z,2.00
2018-12-27T14:11:23.631Z,2.00
2018-12-27T14:13:59.276Z,2.00
2018-12-27T14:16:31.257Z,1.90
2018-12-27T14:18:59.329Z,1.80
2018-12-27T14:21:27.487Z,1.80
2018-12-27T14:23:58.956Z,1.80
2018-12-27T14:26:26.347Z,1.90
2018-12-27T14:28:55.870Z,1.90
2018-12-27T14:31:24.606Z,2.00
2018-12-27T14:33:53.305Z,1.90
2018-12-27T14:36:22.077Z,1.80
2018-12-27T14:38:50.471Z,1.60
2018-12-27T14:41:19.010Z,1.70
2018-12-27T14:43:48.657Z,1.70
2018-12-27T14:46:16.874Z,1.60
2018-12-27T14:48:45.610Z,1.60
2018-12-27T14:51:13.750Z,1.60
2018-12-27T14:53:42.169Z,1.60
2018-12-27T14:56:10.563Z,1.70
2018-12-27T14:58:39.572Z,1.70
2018-12-27T15:01:07.391Z,1.60
2018-12-27T15:03:36.073Z,1.50
2018-12-27T15:06:04.257Z,1.60
2018-12-27T15:08:31.918Z,1.60
2018-12-27T15:10:59.655Z,1.70
2018-12-27T15:13:27.763Z,1.60
2018-12-27T15:15:55.921Z,1.70
2018-12-27T15:18:24.329Z,1.60
2018-12-27T15:20:52.477Z,1.50
2018-12-27T15:23:20.683Z,1.40
2018-12-27T15:25:48.744Z,1.40
2018-12-27T15:28:17.231Z,1.40
2018-12-27T15:30:47.820Z,1.40
2018-12-27T15:33:15.539Z,1.50
2018-12-27T15:35:44.093Z,1.50
2018-12-27T15:38:12.975Z,1.40
2018-12-27T15:40:47.226Z,1.40
2018-12-27T15:43:15.720Z,1.50
2018-12-27T15:45:44.027Z,1.30
2018-12-27T15:48:12.256Z,1.30
2018-12-27T15:50:40.042Z,1.30
2018-12-27T15:53:08.443Z,1.40
2018-12-27T15:55:36.888Z,1.30
2018-12-27T15:58:04.168Z,1.30
2018-12-27T16:00:32.299Z,1.30
2018-12-27T16:03:00.546Z,1.40
2018-12-27T16:05:28.860Z,1.50
2018-12-27T16:07:57.307Z,1.50
2018-12-27T16:10:25.484Z,1.50
2018-12-27T16:12:54.024Z,1.50
2018-12-27T16:15:22.172Z,1.40
2018-12-27T16:17:50.735Z,1.40
2018-12-27T16:20:19.229Z,1.30
2018-12-27T16:22:46.997Z,1.50
2018-12-27T16:25:15.402Z,1.50
2018-12-27T16:27:43.468Z,1.40
2018-12-27T16:30:11.717Z,1.40
2018-12-27T16:32:40.107Z,1.30
2018-12-27T16:35:08.182Z,1.30
2018-12-27T16:37:36.569Z,1.30
2018-12-27T16:40:05.340Z,1.20
2018-12-27T16:42:34.047Z,1.20
2018-12-27T16:45:02.840Z,1.20
2018-12-27T16:47:30.498Z,1.30
2018-12-27T16:49:58.901Z,1.30
2018-12-27T16:52:27.697Z,1.40
2018-12-27T16:54:55.836Z,1.30
2018-12-27T16:57:23.652Z,1.30
2018-12-27T16:59:51.043Z,1.30
2018-12-27T17:02:19.444Z,1.40
2018-12-27T17:04:47.513Z,1.40
2018-12-27T17:07:16.184Z,1.40
2018-12-27T17:12:11.516Z,1.20
2018-12-27T17:14:39.990Z,1.30
2018-12-27T17:17:08.394Z,1.30
2018-12-27T17:19:36.985Z,1.30
2018-12-27T17:22:05.797Z,1.30
2018-12-27T17:24:41.100Z,1.30
2018-12-27T17:27:15.996Z,1.40
2018-12-27T17:32:13.112Z,1.40
2018-12-27T17:37:23.447Z,1.30
2018-12-27T17:42:28.744Z,1.30
2018-12-27T17:45:03.975Z,1.40
2018-12-27T17:48:06.596Z,1.30
2018-12-27T17:50:36.156Z,1.30
2018-12-27T17:53:04.871Z,1.30
2018-12-27T17:55:32.836Z,1.30
2018-12-27T17:58:00.582Z,1.20
2018-12-27T18:00:29.297Z,1.30
2018-12-27T18:02:58.163Z,1.30
2018-12-27T18:05:27.186Z,1.30
2018-12-27T18:07:56.557Z,1.30
2018-12-27T18:10:25.178Z,1.30
2018-12-27T18:12:53.109Z,1.30
2018-12-27T18:15:22.102Z,1.30
2018-12-27T18:20:36.711Z,1.30
2018-12-27T18:23:05.376Z,1.30
2018-12-27T18:25:34.392Z,1.40
2018-12-27T18:28:03.322Z,1.30
2018-12-27T18:33:02.064Z,1.20
2018-12-27T18:35:32.420Z,1.20
2018-12-27T18:38:02.733Z,1.20
2018-12-27T18:40:32.420Z,1.30
2018-12-27T18:43:01.334Z,1.30
2018-12-27T18:45:30.318Z,1.30
2018-12-27T18:50:27.908Z,1.30
2018-12-27T18:52:56.697Z,1.30
2018-12-27T18:55:25.168Z,1.30
2018-12-27T18:57:53.043Z,1.30
2018-12-27T19:00:24.481Z,1.30
2018-12-27T19:02:53.005Z,1.30
2018-12-27T19:05:21.948Z,1.30
2018-12-27T19:10:18.525Z,1.20
2018-12-27T19:13:13.910Z,1.30
2018-12-27T19:15:50.840Z,1.30
2018-12-27T19:18:43.585Z,1.30
2018-12-27T19:23:44.723Z,1.20
2018-12-27T19:26:13.278Z,1.10
2018-12-27T19:28:41.701Z,1.10
2018-12-27T19:31:14.634Z,1.10
2018-12-27T19:33:42.720Z,1.20
2018-12-27T19:36:10.837Z,1.30
2018-12-27T19:38:55.237Z,1.30
2018-12-27T19:41:27.116Z,1.30
2018-12-27T19:43:55.609Z,1.20
2018-12-27T19:51:20.495Z,1.20
2018-12-27T19:53:49.038Z,1.20
2018-12-27T19:56:17.511Z,1.20
2018-12-27T19:58:45.534Z,1.20
2018-12-27T20:01:13.377Z,1.10
2018-12-27T20:03:41.844Z,1.10
2018-12-27T20:06:09.895Z,1.10
2018-12-27T20:08:37.625Z,1.10
2018-12-27T20:11:05.755Z,1.10
2018-12-27T20:13:34.817Z,1.20
2018-12-27T20:16:03.479Z,1.30
2018-12-27T20:18:32.195Z,1.20
2018-12-27T20:21:00.418Z,1.20
2018-12-27T20:23:28.575Z,1.20
2018-12-27T20:25:56.845Z,1.10
2018-12-27T20:28:25.546Z,1.20
2018-12-27T20:30:53.610Z,1.20
2018-12-27T20:33:21.414Z,1.20
2018-12-27T20:35:49.428Z,1.20
2018-12-27T20:38:17.525Z,1.30
2018-12-27T20:40:46.474Z,1.20
2018-12-27T20:43:14.186Z,1.10
2018-12-27T20:45:42.640Z,1.20
2018-12-27T20:48:11.261Z,1.30
2018-12-27T20:50:39.083Z,1.30
2018-12-27T20:53:07.158Z,1.20
2018-12-27T20:55:35.849Z,1.30
2018-12-27T20:58:04.117Z,1.20
2018-12-27T21:00:31.933Z,1.20
2018-12-27T21:03:00.441Z,1.20
2018-12-27T21:05:28.872Z,1.30
2018-12-27T21:07:57.335Z,1.30
2018-12-27T21:10:25.834Z,1.30
2018-12-27T21:12:53.988Z,1.30
2018-12-27T21:15:22.486Z,1.20
2018-12-27T21:17:52.460Z,1.20
2018-12-27T21:20:20.788Z,1.30
2018-12-27T21:22:49.783Z,1.20
2018-12-27T21:25:18.578Z,1.30
2018-12-27T21:27:46.779Z,1.20
2018-12-27T21:30:14.889Z,1.20
2018-12-27T21:32:42.971Z,1.20
2018-12-27T21:35:11.597Z,1.20
2018-12-27T21:37:40.029Z,1.20
2018-12-27T21:40:08.434Z,1.20
2018-12-27T21:42:36.108Z,1.30
2018-12-27T21:45:04.666Z,1.30
2018-12-27T21:47:33.197Z,1.40
2018-12-27T21:50:01.962Z,1.40
2018-12-27T21:52:30.453Z,1.40
2018-12-27T21:54:59.799Z,1.40
2018-12-27T21:57:28.306Z,1.30
2018-12-27T21:59:56.795Z,1.30
2018-12-27T22:02:24.881Z,1.30
2018-12-27T22:04:53.363Z,1.30
2018-12-27T22:07:21.913Z,1.30
2018-12-27T22:09:50.452Z,1.30
2018-12-27T22:12:18.287Z,1.40
2018-12-27T22:14:46.922Z,1.40
2018-12-27T22:19:42.815Z,1.40
2018-12-27T22:22:11.014Z,1.40
2018-12-27T22:24:39.339Z,1.40
2018-12-27T22:27:07.435Z,1.40
2018-12-27T22:29:35.454Z,1.30
2018-12-27T22:32:04.186Z,1.40
2018-12-27T22:34:32.963Z,1.30
2018-12-27T22:37:00.940Z,1.30
2018-12-27T22:39:29.615Z,1.30
2018-12-27T22:41:58.108Z,1.30
2018-12-27T22:44:26.195Z,1.30
2018-12-27T22:46:54.646Z,1.40
2018-12-27T22:49:22.454Z,1.40
2018-12-27T22:51:51.295Z,1.40
2018-12-27T22:54:19.080Z,1.40
2018-12-27T22:56:47.795Z,1.40
2018-12-27T22:59:16.686Z,1.30
2018-12-27T23:01:50.373Z,1.40
2018-12-27T23:04:19.227Z,1.40
2018-12-27T23:06:48.076Z,1.40
2018-12-27T23:09:16.042Z,1.30
2018-12-27T23:11:43.933Z,1.30
2018-12-27T23:14:12.590Z,1.40
2018-12-27T23:16:40.655Z,1.30
2018-12-27T23:19:07.995Z,1.30
2018-12-27T23:21:36.691Z,1.30
2018-12-27T23:24:04.856Z,1.50
2018-12-27T23:26:33.278Z,1.50
2018-12-27T23:29:01.724Z,1.50
2018-12-27T23:31:29.800Z,1.50
2018-12-27T23:33:58.487Z,1.50
2018-12-27T23:36:26.569Z,1.50
2018-12-27T23:38:54.945Z,1.40
2018-12-27T23:41:22.608Z,1.50
2018-12-27T23:46:18.890Z,1.30
2018-12-27T23:48:47.315Z,1.40
2018-12-27T23:51:14.991Z,1.40
2018-12-27T23:53:43.066Z,1.40
2018-12-27T23:56:11.691Z,1.40
